Time,TemperatureF,DewpointF,PressureIn,WindDirection,WindDirectionDegrees,WindSpeedMPH,WindSpeedGustMPH,Humidity,HourlyPrecipIn,Conditions,Clouds,dailyrainin,SoftwareType,DateUTC
2013-03-27 00:08:00,36.2,31.0,29.74,WNW,286,0.0,5.0,80,0.00,,,0.00,weatherlink.com 1.10,2013-03-27 04:08:00,
2013-03-27 00:23:00,36.6,31.0,29.73,SW,226,1.0,4.0,79,0.00,,,0.00,weatherlink.com 1.10,2013-03-27 04:23:00,
2013-03-27 00:38:00,36.5,30.0,29.73,WNW,285,0.0,5.0,78,0.00,,,0.00,weatherlink.com 1.10,2013-03-27 04:38:00,
2013-03-27 00:53:00,36.4,30.0,29.73,WNW,302,3.0,5.0,76,0.00,,,0.00,weatherlink.com 1.10,2013-03-27 04:53:00,
2013-03-27 01:08:00,36.3,29.0,29.73,WNW,284,1.0,5.0,75,0.00,,,0.00,weatherlink.com 1.10,2013-03-27 05:08:00,
2013-03-27 01:23:00,36.4,29.0,29.73,NW,310,3.0,6.0,74,0.00,,,0.00,weatherlink.com 1.10,2013-03-27 05:23:00,
2013-03-27 01:38:00,36.6,29.0,29.73,WNW,295,3.0,6.0,74,0.00,,,0.00,weatherlink.com 1.10,2013-03-27 05:38:00,
2013-03-27 01:53:00,36.7,29.0,29.73,WNW,290,3.0,7.0,74,0.00,,,0.00,weatherlink.com 1.10,2013-03-27 05:53:00,
2013-03-27 02:08:00,36.4,29.0,29.73,WNW,298,5.0,5.0,74,0.00,,,0.00,weatherlink.com 1.10,2013-03-27 06:08:00,
2013-03-27 02:23:00,36.2,29.0,29.73,WNW,297,3.0,6.0,74,0.00,,,0.00,weatherlink.com 1.10,2013-03-27 06:23:00,
2013-03-27 02:38:00,36.1,28.0,29.73,WNW,293,4.0,7.0,72,0.00,,,0.00,weatherlink.com 1.10,2013-03-27 06:38:00,
2013-03-27 02:53:00,36.3,28.0,29.73,WNW,294,5.0,7.0,71,0.00,,,0.00,weatherlink.com 1.10,2013-03-27 06:53:00,
2013-03-27 03:08:00,36.0,27.0,29.73,WNW,300,3.0,5.0,71,0.00,,,0.00,weatherlink.com 1.10,2013-03-27 07:08:00,
2013-03-27 03:23:00,35.8,27.0,29.73,WNW,293,4.0,5.0,71,0.00,,,0.00,weatherlink.com 1.10,2013-03-27 07:23:00,
2013-03-27 03:38:00,35.6,27.0,29.73,NW,304,3.0,6.0,71,0.00,,,0.00,weatherlink.com 1.10,2013-03-27 07:38:00,
2013-03-27 03:53:00,35.6,27.0,29.72,NW,304,4.0,6.0,70,0.00,,,0.00,weatherlink.com 1.10,2013-03-27 07:53:00,
2013-03-27 04:08:00,35.5,27.0,29.73,WNW,300,4.0,5.0,70,0.00,,,0.00,weatherlink.com 1.10,2013-03-27 08:08:00,
2013-03-27 04:23:00,35.7,27.0,29.73,WNW,290,4.0,7.0,70,0.00,,,0.00,weatherlink.com 1.10,2013-03-27 08:23:00,
2013-03-27 04:38:00,35.8,27.0,29.73,NW,305,4.0,6.0,70,0.00,,,0.00,weatherlink.com 1.10,2013-03-27 08:38:00,
2013-03-27 04:53:00,35.9,27.0,29.73,WNW,303,3.0,6.0,70,0.00,,,0.00,weatherlink.com 1.10,2013-03-27 08:53:00,
2013-03-27 05:08:00,35.4,27.0,29.73,NW,304,3.0,5.0,71,0.00,,,0.00,weatherlink.com 1.10,2013-03-27 09:08:00,
2013-03-27 05:23:00,34.9,26.0,29.73,NW,308,3.0,5.0,71,0.00,,,0.00,weatherlink.com 1.10,2013-03-27 09:23:00,
2013-03-27 05:38:00,34.8,26.0,29.73,WNW,299,4.0,6.0,71,0.00,,,0.00,weatherlink.com 1.10,2013-03-27 09:38:00,
2013-03-27 05:53:00,34.4,26.0,29.73,WNW,301,3.0,5.0,72,0.00,,,0.00,weatherlink.com 1.10,2013-03-27 09:53:00,
2013-03-27 06:08:00,33.7,26.0,29.74,NW,305,3.0,4.0,74,0.00,,,0.00,weatherlink.com 1.10,2013-03-27 10:08:00,
2013-03-27 06:23:00,33.7,26.0,29.74,WNW,301,3.0,5.0,74,0.00,,,0.00,weatherlink.com 1.10,2013-03-27 10:23:00,
2013-03-27 06:38:00,33.6,26.0,29.74,NW,309,2.0,6.0,74,0.00,,,0.00,weatherlink.com 1.10,2013-03-27 10:38:00,
2013-03-27 06:53:00,34.3,27.0,29.75,NW,320,1.0,4.0,75,0.00,,,0.00,weatherlink.com 1.10,2013-03-27 10:53:00,
2013-03-27 07:08:00,34.9,27.0,29.75,WNW,297,1.0,4.0,74,0.00,,,0.00,weatherlink.com 1.10,2013-03-27 11:08:00,
2013-03-27 07:23:00,35.8,28.0,29.76,WNW,297,2.0,7.0,73,0.00,,,0.00,weatherlink.com 1.10,2013-03-27 11:23:00,
2013-03-27 07:38:00,37.2,29.0,29.76,WNW,287,3.0,7.0,71,0.00,,,0.00,weatherlink.com 1.10,2013-03-27 11:38:00,
2013-03-27 07:53:00,38.6,29.0,29.77,West,280,5.0,8.0,69,0.00,,,0.00,weatherlink.com 1.10,2013-03-27 11:53:00,
2013-03-27 08:08:00,39.4,30.0,29.77,WNW,284,4.0,9.0,68,0.00,,,0.00,weatherlink.com 1.10,2013-03-27 12:08:00,
2013-03-27 08:23:00,40.6,29.0,29.77,NW,322,5.0,9.0,63,0.00,,,0.00,weatherlink.com 1.10,2013-03-27 12:23:00,
2013-03-27 08:39:00,41.3,29.0,29.77,WNW,294,6.0,9.0,62,0.00,,,0.00,weatherlink.com 1.10,2013-03-27 12:39:00,
2013-03-27 08:54:00,42.4,28.0,29.77,NW,324,3.0,12.0,58,0.00,,,0.00,weatherlink.com 1.10,2013-03-27 12:54:00,
2013-03-27 09:09:00,43.0,28.0,29.77,WNW,295,5.0,11.0,56,0.00,,,0.00,weatherlink.com 1.10,2013-03-27 13:09:00,
2013-03-27 09:24:00,43.6,27.0,29.77,NW,316,6.0,12.0,53,0.00,,,0.00,weatherlink.com 1.10,2013-03-27 13:24:00,
2013-03-27 09:39:00,43.6,28.0,29.77,WNW,298,5.0,14.0,55,0.00,,,0.00,weatherlink.com 1.10,2013-03-27 13:39:00,
2013-03-27 09:54:00,43.8,28.0,29.77,NNW,337,8.0,11.0,55,0.00,,,0.00,weatherlink.com 1.10,2013-03-27 13:54:00,
2013-03-27 10:09:00,44.0,28.0,29.76,NNW,348,9.0,11.0,53,0.00,,,0.00,weatherlink.com 1.10,2013-03-27 14:09:00,
2013-03-27 10:24:00,44.3,28.0,29.76,NNW,341,7.0,12.0,54,0.00,,,0.00,weatherlink.com 1.10,2013-03-27 14:24:00,
2013-03-27 10:39:00,45.0,29.0,29.76,NNW,330,7.0,11.0,53,0.00,,,0.00,weatherlink.com 1.10,2013-03-27 14:39:00,
2013-03-27 10:54:00,46.3,28.0,29.75,North,356,5.0,12.0,49,0.00,,,0.00,weatherlink.com 1.10,2013-03-27 14:54:00,
2013-03-27 11:09:00,47.5,27.0,29.75,North,8,10.0,11.0,45,0.00,,,0.00,weatherlink.com 1.10,2013-03-27 15:09:00,
2013-03-27 11:24:00,47.1,25.0,29.75,North,8,10.0,13.0,43,0.00,,,0.00,weatherlink.com 1.10,2013-03-27 15:24:00,
2013-03-27 11:39:00,47.2,27.0,29.74,NNW,338,8.0,11.0,46,0.00,,,0.00,weatherlink.com 1.10,2013-03-27 15:39:00,
2013-03-27 11:54:00,48.1,26.0,29.74,NW,306,7.0,15.0,43,0.00,,,0.00,weatherlink.com 1.10,2013-03-27 15:54:00,
2013-03-27 12:09:00,48.7,26.0,29.74,NNW,347,3.0,12.0,42,0.00,,,0.00,weatherlink.com 1.10,2013-03-27 16:09:00,
2013-03-27 12:24:00,49.1,27.0,29.73,NW,307,12.0,14.0,43,0.00,,,0.00,weatherlink.com 1.10,2013-03-27 16:24:00,
2013-03-27 12:39:00,48.8,26.0,29.73,North,360,6.0,14.0,42,0.00,,,0.00,weatherlink.com 1.10,2013-03-27 16:39:00,
2013-03-27 12:54:00,49.6,34.0,29.73,WSW,247,7.0,10.0,55,0.00,,,0.00,weatherlink.com 1.10,2013-03-27 16:54:00,
2013-03-27 13:09:00,49.9,33.0,29.73,SW,215,8.0,14.0,53,0.00,,,0.00,weatherlink.com 1.10,2013-03-27 17:09:00,
2013-03-27 13:24:00,49.0,32.0,29.73,SE,134,4.0,14.0,53,0.00,,,0.00,weatherlink.com 1.10,2013-03-27 17:24:00,
2013-03-27 13:39:00,49.0,32.0,29.72,SE,128,3.0,16.0,52,0.00,,,0.00,weatherlink.com 1.10,2013-03-27 17:39:00,
2013-03-27 13:54:00,49.2,33.0,29.72,West,260,1.0,14.0,54,0.00,,,0.00,weatherlink.com 1.10,2013-03-27 17:54:00,
2013-03-27 14:09:00,49.9,33.0,29.72,NNW,333,2.0,13.0,53,0.00,,,0.00,weatherlink.com 1.10,2013-03-27 18:09:00,
2013-03-27 14:24:00,47.4,34.0,29.71,West,266,5.0,14.0,60,0.00,,,0.00,weatherlink.com 1.10,2013-03-27 18:24:00,
2013-03-27 14:39:00,46.4,34.0,29.72,WNW,293,5.0,13.0,62,0.00,,,0.00,weatherlink.com 1.10,2013-03-27 18:39:00,
2013-03-27 14:54:00,46.1,34.0,29.71,NW,318,3.0,11.0,64,0.00,,,0.00,weatherlink.com 1.10,2013-03-27 18:54:00,
2013-03-27 15:09:00,47.3,33.0,29.71,West,267,3.0,13.0,58,0.00,,,0.00,weatherlink.com 1.10,2013-03-27 19:09:00,
2013-03-27 15:24:00,47.8,34.0,29.71,West,264,5.0,13.0,59,0.00,,,0.00,weatherlink.com 1.10,2013-03-27 19:24:00,
2013-03-27 15:39:00,49.0,33.0,29.71,NW,311,8.0,13.0,55,0.00,,,0.00,weatherlink.com 1.10,2013-03-27 19:39:00,
2013-03-27 15:54:00,49.6,33.0,29.71,South,169,2.0,9.0,54,0.00,,,0.00,weatherlink.com 1.10,2013-03-27 19:54:00,
2013-03-27 16:09:00,49.8,34.0,29.71,West,276,8.0,14.0,55,0.00,,,0.00,weatherlink.com 1.10,2013-03-27 20:09:00,
2013-03-27 16:24:00,49.3,33.0,29.71,NNW,333,3.0,12.0,53,0.00,,,0.00,weatherlink.com 1.10,2013-03-27 20:24:00,
2013-03-27 16:39:00,50.1,32.0,29.71,SW,232,4.0,11.0,50,0.00,,,0.00,weatherlink.com 1.10,2013-03-27 20:39:00,
2013-03-27 16:54:00,49.7,34.0,29.71,WSW,246,6.0,13.0,55,0.00,,,0.00,weatherlink.com 1.10,2013-03-27 20:54:00,
2013-03-27 17:09:00,48.6,35.0,29.71,NE,43,2.0,10.0,59,0.00,,,0.00,weatherlink.com 1.10,2013-03-27 21:09:00,
2013-03-27 17:25:00,48.1,35.0,29.71,ESE,111,1.0,8.0,61,0.00,,,0.00,weatherlink.com 1.10,2013-03-27 21:25:00,
2013-03-27 17:39:00,47.3,34.0,29.72,SW,235,5.0,7.0,61,0.00,,,0.00,weatherlink.com 1.10,2013-03-27 21:39:00,
2013-03-27 17:54:00,46.5,34.0,29.72,West,274,4.0,6.0,63,0.00,,,0.00,weatherlink.com 1.10,2013-03-27 21:54:00,
2013-03-27 18:09:00,45.7,35.0,29.72,WSW,245,4.0,6.0,67,0.00,,,0.00,weatherlink.com 1.10,2013-03-27 22:09:00,
2013-03-27 18:24:00,45.5,35.0,29.72,NNE,22,0.0,5.0,67,0.00,,,0.00,weatherlink.com 1.10,2013-03-27 22:24:00,
2013-03-27 18:39:00,45.3,34.0,29.72,WNW,287,2.0,4.0,66,0.00,,,0.00,weatherlink.com 1.10,2013-03-27 22:39:00,
2013-03-27 18:54:00,45.0,33.0,29.73,WSW,255,0.0,5.0,63,0.00,,,0.00,weatherlink.com 1.10,2013-03-27 22:54:00,
2013-03-27 19:09:00,44.7,33.0,29.73,WNW,301,2.0,4.0,63,0.00,,,0.00,weatherlink.com 1.10,2013-03-27 23:09:00,
2013-03-27 19:24:00,45.5,33.0,29.74,NW,310,2.0,6.0,61,0.00,,,0.00,weatherlink.com 1.10,2013-03-27 23:24:00,
2013-03-27 19:39:00,45.7,32.0,29.74,WNW,293,4.0,5.0,59,0.00,,,0.00,weatherlink.com 1.10,2013-03-27 23:39:00,
2013-03-27 19:54:00,47.0,31.0,29.74,WNW,293,3.0,8.0,55,0.00,,,0.00,weatherlink.com 1.10,2013-03-27 23:54:00,
2013-03-27 20:09:00,46.6,31.0,29.75,WNW,302,3.0,6.0,55,0.00,,,0.00,weatherlink.com 1.10,2013-03-28 00:09:00,
2013-03-27 20:24:00,46.7,30.0,29.75,NW,326,4.0,7.0,53,0.00,,,0.00,weatherlink.com 1.10,2013-03-28 00:24:00,
2013-03-27 20:40:00,46.8,30.0,29.76,NW,314,4.0,7.0,53,0.00,,,0.00,weatherlink.com 1.10,2013-03-28 00:40:00,
2013-03-27 20:55:00,46.6,34.0,29.78,North,6,11.0,12.0,62,0.00,,,0.00,weatherlink.com 1.10,2013-03-28 00:55:00,
2013-03-27 21:10:00,43.9,36.0,29.79,NNE,19,8.0,15.0,73,0.00,,,0.00,weatherlink.com 1.10,2013-03-28 01:10:00,
2013-03-27 21:25:00,43.3,37.0,29.79,NE,41,10.0,10.0,77,0.00,,,0.00,weatherlink.com 1.10,2013-03-28 01:25:00,
2013-03-27 21:40:00,42.9,37.0,29.80,NNE,20,5.0,9.0,80,0.00,,,0.00,weatherlink.com 1.10,2013-03-28 01:40:00,
2013-03-27 21:55:00,42.6,38.0,29.80,NNE,18,6.0,6.0,82,0.00,,,0.00,weatherlink.com 1.10,2013-03-28 01:55:00,
2013-03-27 22:10:00,42.4,37.0,29.80,NNE,22,4.0,6.0,82,0.00,,,0.00,weatherlink.com 1.10,2013-03-28 02:10:00,
2013-03-27 22:25:00,42.2,37.0,29.80,NNW,330,3.0,4.0,82,0.00,,,0.00,weatherlink.com 1.10,2013-03-28 02:25:00,
2013-03-27 22:40:00,42.2,37.0,29.80,NW,316,4.0,5.0,81,0.00,,,0.00,weatherlink.com 1.10,2013-03-28 02:40:00,
2013-03-27 22:55:00,42.3,37.0,29.80,North,352,4.0,7.0,81,0.00,,,0.00,weatherlink.com 1.10,2013-03-28 02:55:00,
2013-03-27 23:10:00,42.1,37.0,29.80,NNW,330,4.0,7.0,81,0.00,,,0.00,weatherlink.com 1.10,2013-03-28 03:10:00,
2013-03-27 23:25:00,41.7,37.0,29.80,NW,323,4.0,6.0,82,0.00,,,0.00,weatherlink.com 1.10,2013-03-28 03:25:00,
2013-03-27 23:40:00,41.5,36.0,29.80,NW,319,5.0,6.0,82,0.00,,,0.00,weatherlink.com 1.10,2013-03-28 03:40:00,
2013-03-27 23:55:00,41.7,37.0,29.80,NW,326,3.0,6.0,83,0.00,,,0.00,weatherlink.com 1.10,2013-03-28 03:55:00,